Etusivu
METAR-TAF:

METAR-TAF

Lentoasemat :

Cherbourg, Ranska

Leveyspiiri: 49-39N, Pituuspiiri: 001-28W, korkeus merenpinnasta: 138 m

Tämänhetkinen sää

Tämä raportti tehtiin 23 minuuttia sitten, kello 21.00 UTC
Tuuli 2 kn lännestä/lounaasta
Lämpötila 4°C
Kosteus 81%
Ilmanpaine 1018 hPa
Näkyvyys 10 km tai enemmän
Muutamia pilviä 4000 ft:n korkeudessa

METAR: LFRC 182100Z AUTO 25002KT 9999 FEW040 04/01 Q1018

Aika: 22:23 (21:23 UTC)

Sääennuste

Tämä raportti tehtiin 7 tuntia ja 23 minuuttia sitten, kello 14.00 UTC
Ennuste voimassa 18. päivästä klo 15 UTC - 18. päivään klo 24 UTC
Tuuli 8 kn pohjoisesta
Näkyvyys 10 km tai enemmän
Hajonneita pilviä 2500 ft:n korkeudessa
Tulossa
18. päivästä klo 17 UTC - 18. päivään klo 19 UTC
Tuuli 3 kn eri suunnista
Ajoittain
18. päivästä klo 21 UTC - 18. päivään klo 24 UTC
Näkyvyys: 3000 m
utua

TAF: LFRC 181400Z 1815/1824 36008KT 9999 BKN025 BECMG 1817/1819 VRB03KT TEMPO 1821/1824 3000 BR

Säähavainnot ja -ennusteet yli 4000 lentoasemalta (METAR- ja TAF-raportit).

Käytössä olevat sääasemat on merkitty karttaan keltaisilla ja punaisilla pisteillä.

Aseta hiiri pisteen päälle nähdäksesi sääaseman nimen.

Klikkaa sitten nähdäksesi säähavainnot ja -ennusteet.

Kartan vaihtaminen: klikkaa mustalla rastilla varustettuja vihreitä pisteitä, niin voit zoomata sisään; viivalla varustettua vihreää pistettä, niin voit zoomata ulos tai vihreitä nuolia, niin pääset viereisille kartoille.


METAR-TAF: